createdAt,value
2019-03-17T00:02:45.865Z,27.60
2019-03-17T00:05:41.287Z,27.60
2019-03-17T00:08:36.822Z,27.60
2019-03-17T00:11:32.147Z,27.60
2019-03-17T00:14:27.695Z,27.60
2019-03-17T00:17:25.153Z,27.60
2019-03-17T00:20:20.249Z,27.60
2019-03-17T00:23:15.111Z,27.60
2019-03-17T00:26:10.531Z,27.60
2019-03-17T00:29:05.966Z,27.60
2019-03-17T00:32:01.729Z,27.50
2019-03-17T00:34:56.701Z,27.50
2019-03-17T00:37:52.464Z,27.50
2019-03-17T00:40:47.789Z,27.40
2019-03-17T00:43:49.201Z,27.40
2019-03-17T00:46:44.400Z,27.30
2019-03-17T00:49:39.683Z,27.30
2019-03-17T00:52:35.412Z,27.30
2019-03-17T00:55:30.801Z,27.20
2019-03-17T00:58:26.188Z,27.20
2019-03-17T01:01:21.923Z,27.20
2019-03-17T01:04:17.563Z,27.20
2019-03-17T01:07:13.192Z,27.20
2019-03-17T01:10:08.606Z,27.20
2019-03-17T01:13:04.063Z,27.20
2019-03-17T01:19:41.043Z,27.20
2019-03-17T01:22:36.586Z,27.20
2019-03-17T01:25:32.024Z,27.20
2019-03-17T01:28:27.226Z,27.20
2019-03-17T01:31:23.144Z,27.20
2019-03-17T01:34:18.979Z,27.10
2019-03-17T01:37:14.887Z,27.10
2019-03-17T01:40:10.041Z,27.10
2019-03-17T01:43:04.652Z,27.10
2019-03-17T01:45:59.806Z,27.10
2019-03-17T01:48:55.252Z,27.10
2019-03-17T01:51:50.537Z,27.10
2019-03-17T01:54:45.886Z,27.10
2019-03-17T01:57:41.506Z,27.10
2019-03-17T02:00:36.664Z,27.10
2019-03-17T02:03:33.417Z,27.10
2019-03-17T02:06:28.852Z,27.10
2019-03-17T02:09:24.124Z,27.10
2019-03-17T02:12:19.500Z,27.20
2019-03-17T02:15:15.176Z,27.20
2019-03-17T02:18:10.401Z,27.30
2019-03-17T02:21:05.670Z,27.40
2019-03-17T02:24:00.849Z,27.40
2019-03-17T02:26:56.087Z,27.40
2019-03-17T02:29:51.918Z,27.40
2019-03-17T02:32:47.430Z,27.50
2019-03-17T02:35:42.890Z,27.50
2019-03-17T02:38:38.405Z,27.60
2019-03-17T02:41:33.847Z,27.60
2019-03-17T02:44:29.386Z,27.60
2019-03-17T02:47:25.022Z,27.70
2019-03-17T02:50:20.753Z,27.70
2019-03-17T02:53:16.118Z,27.80
2019-03-17T02:56:12.207Z,27.80
2019-03-17T02:59:07.855Z,27.90
2019-03-17T03:02:02.879Z,27.90
2019-03-17T03:04:58.343Z,27.90
2019-03-17T03:07:53.275Z,28.00
2019-03-17T03:10:48.283Z,28.00
2019-03-17T03:13:42.959Z,28.10
2019-03-17T03:16:38.378Z,28.10
2019-03-17T03:19:33.913Z,28.10
2019-03-17T03:22:29.405Z,28.20
2019-03-17T03:25:24.935Z,28.20
2019-03-17T03:28:21.438Z,28.30
2019-03-17T03:31:16.729Z,28.30
2019-03-17T03:34:12.249Z,28.30
2019-03-17T03:37:08.462Z,28.40
2019-03-17T03:40:04.915Z,28.40
2019-03-17T03:43:00.990Z,28.50
2019-03-17T03:45:56.709Z,28.50
2019-03-17T03:48:51.842Z,28.50
2019-03-17T03:51:47.264Z,28.60
2019-03-17T03:54:42.544Z,28.60
2019-03-17T03:57:37.710Z,28.60
2019-03-17T04:00:33.174Z,28.70
2019-03-17T04:03:28.588Z,28.80
2019-03-17T04:06:26.699Z,28.80
2019-03-17T04:09:19.625Z,28.90
2019-03-17T04:12:15.227Z,29.00
2019-03-17T04:15:11.165Z,29.00
2019-03-17T04:18:06.471Z,29.10
2019-03-17T04:21:03.654Z,29.10
2019-03-17T04:23:59.858Z,29.10
2019-03-17T04:26:56.571Z,29.20
2019-03-17T04:29:51.995Z,29.20
2019-03-17T04:32:48.131Z,29.30
2019-03-17T04:35:45.155Z,29.30
2019-03-17T04:38:43.529Z,29.30
2019-03-17T04:41:36.675Z,29.40
2019-03-17T04:44:32.292Z,29.40
2019-03-17T04:47:28.427Z,29.50
2019-03-17T04:50:24.740Z,29.50
2019-03-17T04:53:21.387Z,29.60
2019-03-17T04:56:18.702Z,29.70
2019-03-17T04:59:14.333Z,29.70
2019-03-17T05:02:09.962Z,29.80
2019-03-17T05:05:05.656Z,29.80
2019-03-17T05:08:01.740Z,29.90
2019-03-17T05:10:57.434Z,30.00
2019-03-17T05:13:53.709Z,30.00
2019-03-17T05:16:48.987Z,30.00
2019-03-17T05:19:44.005Z,30.10
2019-03-17T05:22:40.185Z,30.10
2019-03-17T05:25:37.917Z,30.20
2019-03-17T05:28:33.612Z,30.20
2019-03-17T05:31:29.631Z,30.30
2019-03-17T05:34:25.419Z,30.30
2019-03-17T05:37:23.273Z,30.40
2019-03-17T05:40:21.745Z,30.40
2019-03-17T05:43:18.044Z,30.50
2019-03-17T05:46:14.840Z,30.60
2019-03-17T05:49:11.934Z,30.60
2019-03-17T05:52:07.292Z,30.70
2019-03-17T05:55:04.355Z,30.80
2019-03-17T05:58:00.397Z,30.90
2019-03-17T06:00:56.573Z,30.90
2019-03-17T06:03:52.370Z,30.90
2019-03-17T06:06:49.017Z,31.00
2019-03-17T06:09:45.422Z,31.10
2019-03-17T06:12:43.319Z,31.10
2019-03-17T06:15:38.583Z,31.20
2019-03-17T06:18:34.429Z,31.20
2019-03-17T06:21:30.524Z,31.30
2019-03-17T06:24:27.232Z,31.40
2019-03-17T06:27:24.141Z,31.50
2019-03-17T06:30:22.534Z,31.60
2019-03-17T06:33:17.946Z,31.60
2019-03-17T06:36:13.269Z,31.70
2019-03-17T06:39:10.338Z,31.80
2019-03-17T06:42:05.607Z,31.90
2019-03-17T06:45:03.116Z,32.00
2019-03-17T06:47:58.697Z,32.10
2019-03-17T06:50:55.125Z,32.20
2019-03-17T06:53:56.537Z,32.30
2019-03-17T06:56:49.961Z,32.30
2019-03-17T06:59:45.500Z,32.40
2019-03-17T07:02:41.174Z,32.40
2019-03-17T07:05:36.859Z,32.50
2019-03-17T07:08:33.140Z,32.70
2019-03-17T07:11:30.995Z,32.90
2019-03-17T07:14:26.845Z,33.10
2019-03-17T07:17:22.094Z,33.30
2019-03-17T07:20:18.124Z,33.40
2019-03-17T07:23:13.727Z,33.60
2019-03-17T07:26:10.967Z,33.70
2019-03-17T07:29:06.547Z,33.80
2019-03-17T07:32:02.368Z,33.90
2019-03-17T07:34:58.218Z,33.90
2019-03-17T07:37:57.136Z,34.00
2019-03-17T07:40:51.589Z,34.00
2019-03-17T07:43:48.786Z,34.00
2019-03-17T07:46:44.735Z,34.00
2019-03-17T07:49:41.367Z,34.10
2019-03-17T07:52:37.056Z,34.20
2019-03-17T07:55:32.409Z,34.20
2019-03-17T07:58:27.915Z,34.30
2019-03-17T08:01:23.757Z,34.30
2019-03-17T08:04:19.758Z,34.40
2019-03-17T08:07:19.279Z,34.30
2019-03-17T08:10:14.039Z,34.30
2019-03-17T08:13:10.485Z,34.30
2019-03-17T08:16:06.124Z,34.30
2019-03-17T08:19:02.245Z,34.30
2019-03-17T08:21:59.465Z,34.20
2019-03-17T08:24:54.883Z,34.20
2019-03-17T08:27:50.260Z,34.20
2019-03-17T08:30:53.043Z,34.30
2019-03-17T08:33:42.012Z,34.30
2019-03-17T08:36:39.305Z,34.30
2019-03-17T08:39:35.806Z,34.40
2019-03-17T08:42:30.480Z,34.50
2019-03-17T08:45:27.376Z,34.60
2019-03-17T08:48:24.089Z,34.70
2019-03-17T08:51:19.561Z,34.80
2019-03-17T08:54:14.723Z,34.90
2019-03-17T08:57:10.281Z,35.00
2019-03-17T09:00:05.905Z,35.30
2019-03-17T09:03:03.070Z,35.60
2019-03-17T09:05:58.555Z,35.80
2019-03-17T09:08:53.871Z,36.10
2019-03-17T09:11:51.333Z,36.40
2019-03-17T09:14:46.845Z,36.50
2019-03-17T09:17:42.293Z,36.50
2019-03-17T09:20:37.784Z,36.50
2019-03-17T09:23:33.271Z,36.50
2019-03-17T09:26:29.708Z,36.30
2019-03-17T09:29:24.244Z,36.20
2019-03-17T09:32:20.974Z,36.20
2019-03-17T09:35:16.310Z,36.10
2019-03-17T09:38:12.317Z,36.10
2019-03-17T09:41:09.953Z,36.10
2019-03-17T09:44:06.213Z,36.10
2019-03-17T09:47:03.071Z,36.30
2019-03-17T09:49:58.664Z,36.50
2019-03-17T09:52:54.547Z,36.70
2019-03-17T09:55:50.036Z,36.90
2019-03-17T09:58:46.243Z,37.20
2019-03-17T10:01:43.143Z,37.50
2019-03-17T10:04:40.089Z,37.70
2019-03-17T10:07:37.823Z,38.00
2019-03-17T10:10:35.400Z,38.30
2019-03-17T10:13:31.499Z,38.40
2019-03-17T10:16:27.149Z,38.50
2019-03-17T10:19:24.242Z,38.50
2019-03-17T10:22:21.420Z,38.40
2019-03-17T10:25:17.134Z,38.20
2019-03-17T10:28:13.702Z,38.10
2019-03-17T10:31:09.906Z,37.90
2019-03-17T10:34:05.246Z,37.90
2019-03-17T10:37:01.154Z,37.80
2019-03-17T10:39:57.800Z,37.80
2019-03-17T10:42:54.710Z,37.80
2019-03-17T10:45:49.939Z,37.80
2019-03-17T10:48:47.795Z,37.80
2019-03-17T10:51:44.054Z,37.70
2019-03-17T10:54:41.648Z,37.70
2019-03-17T10:57:37.210Z,37.70
2019-03-17T11:00:33.038Z,37.60
2019-03-17T11:03:29.014Z,37.60
2019-03-17T11:06:26.057Z,37.70
2019-03-17T11:09:25.529Z,37.70
2019-03-17T11:12:19.682Z,37.70
2019-03-17T11:15:16.010Z,37.70
2019-03-17T11:18:13.522Z,37.60
2019-03-17T11:21:10.101Z,37.40
2019-03-17T11:24:05.155Z,37.30
2019-03-17T11:27:02.055Z,37.20
2019-03-17T11:29:57.429Z,37.10
2019-03-17T11:32:52.680Z,36.90
2019-03-17T11:35:59.730Z,36.80
2019-03-17T11:38:55.532Z,36.60
2019-03-17T11:41:50.755Z,36.60
2019-03-17T11:44:45.767Z,36.50
2019-03-17T11:47:41.190Z,36.40
2019-03-17T11:50:38.080Z,36.30
2019-03-17T11:53:33.671Z,36.20
2019-03-17T11:56:29.061Z,36.10
2019-03-17T11:59:24.445Z,35.90
2019-03-17T12:02:26.637Z,35.90
2019-03-17T12:05:15.533Z,35.80
2019-03-17T12:08:12.618Z,35.60
2019-03-17T12:11:08.477Z,35.50
2019-03-17T12:14:03.956Z,35.40
2019-03-17T12:16:59.596Z,35.30
2019-03-17T12:19:56.697Z,35.10
2019-03-17T12:22:53.728Z,35.00
2019-03-17T12:25:49.364Z,34.90
2019-03-17T12:28:46.124Z,34.80
2019-03-17T12:31:42.181Z,34.60
2019-03-17T12:34:38.223Z,34.60
2019-03-17T12:37:34.967Z,34.40
2019-03-17T12:40:35.585Z,34.30
2019-03-17T12:43:30.971Z,34.20
2019-03-17T12:46:26.724Z,34.10
2019-03-17T12:49:22.116Z,34.00
2019-03-17T12:52:19.049Z,33.90
2019-03-17T12:55:14.460Z,33.80
2019-03-17T12:58:09.458Z,33.70
2019-03-17T13:01:04.292Z,33.70
2019-03-17T13:03:59.993Z,33.60
2019-03-17T13:06:57.074Z,33.50
2019-03-17T13:09:53.379Z,33.40
2019-03-17T13:12:49.198Z,33.40
2019-03-17T13:15:45.066Z,33.30
2019-03-17T13:18:40.328Z,33.20
2019-03-17T13:21:36.282Z,33.20
2019-03-17T13:24:32.001Z,33.10
2019-03-17T13:27:27.698Z,33.10
2019-03-17T13:30:23.459Z,33.00
2019-03-17T13:33:19.391Z,33.00
2019-03-17T13:36:15.146Z,32.90
2019-03-17T13:39:12.715Z,32.90
2019-03-17T13:42:09.726Z,32.80
2019-03-17T13:45:06.542Z,32.80
2019-03-17T13:48:01.999Z,32.70
2019-03-17T13:50:58.636Z,32.70
2019-03-17T13:53:54.363Z,32.70
2019-03-17T13:56:50.014Z,32.60
2019-03-17T13:59:45.392Z,32.60
2019-03-17T14:02:40.124Z,32.60
2019-03-17T14:05:35.441Z,32.60
2019-03-17T14:08:32.483Z,32.60
2019-03-17T14:11:28.058Z,32.50
2019-03-17T14:14:23.703Z,32.50
2019-03-17T14:17:19.726Z,32.50
2019-03-17T14:20:20.341Z,32.50
2019-03-17T14:23:15.207Z,32.40
2019-03-17T14:26:10.816Z,32.40
2019-03-17T14:29:07.759Z,32.40
2019-03-17T14:32:05.013Z,32.40
2019-03-17T14:35:00.378Z,32.30
2019-03-17T14:37:55.659Z,32.30
2019-03-17T14:40:54.738Z,32.20
2019-03-17T14:43:50.115Z,32.20
2019-03-17T14:46:45.365Z,32.10
2019-03-17T14:49:40.614Z,32.10
2019-03-17T14:52:36.754Z,32.00
2019-03-17T14:55:32.452Z,32.00
2019-03-17T14:58:27.962Z,32.00
2019-03-17T15:01:24.831Z,31.90
2019-03-17T15:04:20.242Z,31.90
2019-03-17T15:07:16.838Z,31.80
2019-03-17T15:10:13.523Z,31.80
2019-03-17T15:13:09.720Z,31.80
2019-03-17T15:16:05.075Z,31.80
2019-03-17T15:19:06.567Z,31.70
2019-03-17T15:22:03.291Z,31.70
2019-03-17T15:34:52.694Z,31.30
2019-03-17T15:37:49.851Z,31.10
2019-03-17T15:40:46.237Z,30.90
2019-03-17T15:43:43.323Z,30.70
2019-03-17T15:46:38.598Z,30.60
2019-03-17T15:49:34.626Z,30.50
2019-03-17T15:52:30.407Z,30.40
2019-03-17T15:55:26.086Z,30.30
2019-03-17T15:58:22.863Z,30.20
2019-03-17T16:09:18.592Z,29.80
2019-03-17T16:12:12.511Z,29.70
2019-03-17T16:15:10.039Z,29.60
2019-03-17T16:28:56.694Z,29.30
2019-03-17T16:31:51.704Z,29.20
2019-03-17T16:34:48.321Z,29.20
2019-03-17T16:37:45.209Z,29.10
2019-03-17T16:40:39.932Z,29.10
2019-03-17T16:43:35.493Z,29.10
2019-03-17T16:46:30.821Z,29.20
2019-03-17T16:49:27.057Z,29.20
2019-03-17T16:52:22.803Z,29.10
2019-03-17T16:55:18.067Z,29.20
2019-03-17T16:58:15.301Z,29.10
2019-03-17T17:01:11.765Z,29.00
2019-03-17T17:04:08.569Z,28.90
2019-03-17T17:07:04.978Z,28.70
2019-03-17T17:10:00.612Z,28.60
2019-03-17T17:12:55.775Z,28.50
2019-03-17T17:15:52.151Z,28.40
2019-03-17T17:18:51.427Z,28.20
2019-03-17T17:21:46.842Z,28.10
2019-03-17T17:24:42.237Z,28.10
2019-03-17T17:27:40.338Z,28.00
2019-03-17T17:30:37.618Z,28.00
2019-03-17T17:33:33.036Z,27.90
2019-03-17T17:36:27.177Z,27.90
2019-03-17T17:39:23.634Z,27.90
2019-03-17T17:42:20.405Z,27.80
2019-03-17T17:45:17.295Z,27.80
2019-03-17T17:48:12.792Z,27.80
2019-03-17T17:51:08.287Z,27.80
2019-03-17T17:54:05.546Z,27.70
2019-03-17T17:57:02.566Z,27.70
2019-03-17T17:59:58.325Z,27.70
2019-03-17T18:02:55.106Z,27.60
2019-03-17T18:05:53.705Z,27.60
2019-03-17T18:08:49.528Z,27.60
2019-03-17T18:11:44.974Z,27.60
2019-03-17T18:14:41.770Z,27.50
2019-03-17T18:17:36.575Z,27.50
2019-03-17T18:20:32.327Z,27.50
2019-03-17T18:23:29.025Z,27.40
2019-03-17T18:26:24.703Z,27.40
2019-03-17T18:29:19.803Z,27.40
2019-03-17T18:32:15.811Z,27.40
2019-03-17T18:35:11.710Z,27.40
2019-03-17T18:38:18.782Z,27.30
2019-03-17T18:41:14.306Z,27.30
2019-03-17T18:44:09.823Z,27.20
2019-03-17T18:47:05.876Z,27.20
2019-03-17T18:50:00.889Z,27.20
2019-03-17T18:53:07.166Z,27.20
2019-03-17T18:56:01.961Z,27.20
2019-03-17T18:58:58.112Z,27.10
2019-03-17T19:01:53.049Z,27.10
2019-03-17T19:04:48.643Z,27.10
2019-03-17T19:07:44.409Z,27.10
2019-03-17T19:10:39.197Z,27.10
2019-03-17T19:13:34.797Z,27.10
2019-03-17T19:16:32.657Z,27.10
2019-03-17T19:19:28.092Z,27.10
2019-03-17T19:22:24.796Z,27.00
2019-03-17T19:25:30.938Z,27.00
2019-03-17T19:28:27.679Z,27.00
2019-03-17T19:31:22.773Z,26.90
2019-03-17T19:34:18.264Z,26.90
2019-03-17T19:37:13.815Z,26.80
2019-03-17T19:40:09.373Z,26.80
2019-03-17T19:43:04.733Z,26.80
2019-03-17T19:46:00.813Z,26.80
2019-03-17T19:48:56.691Z,26.80
2019-03-17T19:51:52.302Z,26.70
2019-03-17T19:54:47.462Z,26.70
2019-03-17T19:57:43.068Z,26.70
2019-03-17T20:00:38.176Z,26.70
2019-03-17T20:03:33.117Z,26.60
2019-03-17T20:06:28.046Z,26.60
2019-03-17T20:09:23.401Z,26.70
2019-03-17T20:12:18.849Z,26.70
2019-03-17T20:15:14.076Z,26.70
2019-03-17T20:18:10.029Z,26.70
2019-03-17T20:21:05.095Z,26.70
2019-03-17T20:24:00.222Z,26.70
2019-03-17T20:26:55.633Z,26.70
2019-03-17T20:29:51.436Z,26.70
2019-03-17T20:32:46.664Z,26.70
2019-03-17T20:35:42.498Z,26.60
2019-03-17T20:38:38.258Z,26.60
2019-03-17T20:41:33.643Z,26.50
2019-03-17T20:44:29.209Z,26.50
2019-03-17T20:47:24.359Z,26.40
2019-03-17T20:50:20.005Z,26.40
2019-03-17T20:53:16.414Z,26.40
2019-03-17T20:56:11.882Z,26.40
2019-03-17T20:59:07.336Z,26.30
2019-03-17T21:02:02.464Z,26.30
2019-03-17T21:04:57.634Z,26.30
2019-03-17T21:07:53.217Z,26.30
2019-03-17T21:10:50.025Z,26.30
2019-03-17T21:13:46.857Z,26.30
2019-03-17T21:16:40.199Z,26.30
2019-03-17T21:19:35.785Z,26.20
2019-03-17T21:22:31.080Z,26.20
2019-03-17T21:25:26.099Z,26.20
2019-03-17T21:28:21.098Z,26.20
2019-03-17T21:31:16.135Z,26.20
2019-03-17T21:34:10.940Z,26.10
2019-03-17T21:37:17.082Z,26.10
2019-03-17T21:40:13.352Z,26.10
2019-03-17T21:43:08.441Z,26.00
2019-03-17T21:46:03.719Z,26.00
2019-03-17T21:48:59.201Z,26.00
2019-03-17T21:51:54.568Z,26.00
2019-03-17T21:54:49.960Z,25.90
2019-03-17T21:57:45.805Z,25.90
2019-03-17T22:00:41.109Z,25.90
2019-03-17T22:03:36.769Z,25.90
2019-03-17T22:06:32.298Z,25.80
2019-03-17T22:09:27.587Z,25.80
2019-03-17T22:12:22.265Z,25.80
2019-03-17T22:15:17.813Z,25.70
2019-03-17T22:18:13.164Z,25.80
2019-03-17T22:21:08.614Z,25.70
2019-03-17T22:24:04.190Z,25.70
2019-03-17T22:27:00.352Z,25.70
2019-03-17T22:29:55.704Z,25.70
2019-03-17T22:32:51.017Z,25.70
2019-03-17T22:35:46.205Z,25.70
2019-03-17T22:38:41.484Z,25.70
2019-03-17T22:41:36.914Z,25.70
2019-03-17T22:44:31.747Z,25.70
2019-03-17T22:47:27.095Z,25.70
2019-03-17T22:50:23.254Z,25.70
2019-03-17T22:53:18.768Z,25.70
2019-03-17T22:56:14.235Z,25.70
2019-03-17T22:59:09.734Z,25.70
2019-03-17T23:02:05.846Z,25.60
2019-03-17T23:05:01.351Z,25.60
2019-03-17T23:07:56.916Z,25.60
2019-03-17T23:10:52.033Z,25.60
2019-03-17T23:13:47.600Z,25.60
2019-03-17T23:16:43.331Z,25.60
2019-03-17T23:19:39.200Z,25.50
2019-03-17T23:22:34.887Z,25.60
2019-03-17T23:25:30.575Z,25.50
2019-03-17T23:28:26.540Z,25.50
2019-03-17T23:31:33.319Z,25.50
2019-03-17T23:34:28.910Z,25.50
2019-03-17T23:37:24.358Z,25.50
2019-03-17T23:40:20.102Z,25.40
2019-03-17T23:43:15.577Z,25.40
2019-03-17T23:46:23.024Z,25.40
2019-03-17T23:49:18.497Z,25.40
2019-03-17T23:52:13.925Z,25.40
2019-03-17T23:55:08.981Z,25.40
2019-03-17T23:58:04.408Z,25.40
